createdAt,value
2023-04-21T00:47:37.682Z,57.63
2023-04-21T00:50:05.832Z,57.65
2023-04-21T00:52:33.750Z,57.57
2023-04-21T00:55:02.200Z,57.59
2023-04-21T00:57:29.925Z,57.56
2023-04-21T00:59:57.630Z,57.68
2023-04-21T01:47:50.723Z,57.85
2023-04-21T01:50:18.596Z,58.01
2023-04-21T01:52:46.265Z,57.97
2023-04-21T01:55:16.040Z,58.05
2023-04-21T01:57:43.663Z,58.17
2023-04-21T02:48:23.205Z,58.90
2023-04-21T02:50:53.206Z,58.84
2023-04-21T02:53:21.106Z,58.87
2023-04-21T02:55:48.816Z,58.87
2023-04-21T02:58:16.592Z,58.79
2023-04-21T03:47:34.666Z,59.08
2023-04-21T03:50:04.166Z,59.14
2023-04-21T03:52:31.909Z,59.15
2023-04-21T03:54:59.606Z,59.36
2023-04-21T03:57:27.248Z,59.18
2023-04-21T03:59:54.933Z,59.28
2023-04-21T04:47:47.629Z,59.89
2023-04-21T04:50:15.377Z,60.06
2023-04-21T04:52:44.847Z,60.01
2023-04-21T04:55:12.577Z,59.85
2023-04-21T04:57:40.325Z,59.99
2023-04-21T05:00:11.223Z,59.92
2023-04-21T05:02:39.231Z,60.04
2023-04-21T05:05:09.076Z,59.60
2023-04-21T05:07:36.883Z,60.02
2023-04-21T05:10:04.816Z,59.59
2023-04-21T05:12:33.213Z,59.58
2023-04-21T05:15:00.835Z,59.68
2023-04-21T05:17:31.196Z,59.88
2023-04-21T05:19:58.984Z,59.93
2023-04-21T05:22:28.028Z,59.85
2023-04-21T05:24:55.714Z,59.72
2023-04-21T05:27:23.399Z,59.75
2023-04-21T05:29:51.186Z,59.63
2023-04-21T05:32:18.994Z,59.61
2023-04-21T05:34:46.777Z,59.40
2023-04-21T05:37:14.437Z,59.50
2023-04-21T05:39:43.621Z,59.29
2023-04-21T05:42:11.371Z,59.49
2023-04-21T05:44:39.015Z,59.36
2023-04-21T05:47:07.850Z,59.41
2023-04-21T05:49:35.532Z,59.34
2023-04-21T05:52:03.164Z,59.33
2023-04-21T05:54:30.765Z,59.34
2023-04-21T05:56:59.782Z,59.15
2023-04-21T05:59:27.631Z,58.96
2023-04-21T06:01:55.292Z,59.12
2023-04-21T06:04:23.341Z,59.41
2023-04-21T06:06:51.485Z,58.02
2023-04-21T06:09:19.192Z,52.24
2023-04-21T06:11:46.945Z,45.07
2023-04-21T06:14:16.027Z,47.22
2023-04-21T06:16:45.945Z,46.74
2023-04-21T06:19:13.699Z,47.78
2023-04-21T06:21:41.419Z,48.98
2023-04-21T06:24:09.591Z,46.66
2023-04-21T06:26:37.333Z,50.25
2023-04-21T06:29:05.020Z,49.00
2023-04-21T06:31:34.072Z,48.77
2023-04-21T06:34:01.943Z,49.47
2023-04-21T06:36:29.681Z,48.68
2023-04-21T06:38:57.287Z,49.22
2023-04-21T06:41:25.042Z,50.04
2023-04-21T06:43:52.768Z,50.11
2023-04-21T06:46:20.522Z,50.60
2023-04-21T06:48:49.701Z,51.13
2023-04-21T06:51:17.336Z,51.76
2023-04-21T06:53:44.999Z,51.81
2023-04-21T06:56:12.773Z,52.30
2023-04-21T06:58:40.540Z,52.06
2023-04-21T07:01:08.481Z,52.28
2023-04-21T07:03:36.519Z,52.44
2023-04-21T07:06:05.994Z,52.54
2023-04-21T07:08:33.691Z,52.55
2023-04-21T07:11:01.403Z,52.84
2023-04-21T07:13:29.137Z,52.88
2023-04-21T07:15:56.781Z,52.85
2023-04-21T07:18:24.438Z,52.96
2023-04-21T07:20:52.304Z,52.96
2023-04-21T07:23:21.400Z,52.94
2023-04-21T07:25:49.010Z,53.01
2023-04-21T07:28:16.767Z,53.16
2023-04-21T07:30:44.570Z,53.04
2023-04-21T07:33:12.290Z,53.23
2023-04-21T07:35:40.003Z,53.12
2023-04-21T07:38:07.807Z,53.14
2023-04-21T07:40:36.879Z,53.17
2023-04-21T07:43:04.578Z,53.21
2023-04-21T07:45:32.230Z,53.29
2023-04-21T07:47:59.956Z,53.12
2023-04-21T07:50:27.750Z,53.41
2023-04-21T07:52:55.437Z,53.39
2023-04-21T07:55:23.244Z,53.45
2023-04-21T07:57:52.293Z,53.34
2023-04-21T08:00:20.141Z,53.48
2023-04-21T08:02:48.131Z,53.42
2023-04-21T08:05:16.154Z,53.45
2023-04-21T08:07:44.082Z,53.39
2023-04-21T08:10:12.145Z,53.48
2023-04-21T08:12:39.833Z,53.40
2023-04-21T08:15:09.466Z,53.48
2023-04-21T08:17:37.324Z,53.36
2023-04-21T08:20:05.264Z,53.46
2023-04-21T08:22:32.974Z,53.47
2023-04-21T08:25:00.663Z,53.50
2023-04-21T08:27:28.524Z,53.65
2023-04-21T08:29:56.206Z,53.67
2023-04-21T08:32:26.517Z,53.83
2023-04-21T08:34:54.650Z,53.82
2023-04-21T08:37:22.956Z,53.78
2023-04-21T08:39:51.945Z,53.72
2023-04-21T08:42:19.771Z,53.76
2023-04-21T08:44:47.624Z,53.75
2023-04-21T08:47:15.797Z,53.97
2023-04-21T08:49:45.623Z,53.91
2023-04-21T08:52:13.504Z,53.96
2023-04-21T08:54:41.285Z,53.96
2023-04-21T08:57:15.254Z,53.80
2023-04-21T08:59:43.954Z,54.04
2023-04-21T09:02:12.255Z,53.90
2023-04-21T09:04:41.042Z,53.99
2023-04-21T09:07:10.492Z,54.01
2023-04-21T09:09:53.078Z,53.90
2023-04-21T09:12:20.856Z,53.87
2023-04-21T09:14:48.538Z,53.96
2023-04-21T09:17:16.724Z,53.83
2023-04-21T09:19:44.568Z,54.07
2023-04-21T09:22:16.834Z,54.02
2023-04-21T09:24:48.102Z,53.94
2023-04-21T09:27:16.203Z,54.10
2023-04-21T09:29:47.354Z,53.88
2023-04-21T09:32:17.677Z,53.85
2023-04-21T09:34:45.347Z,53.82
2023-04-21T09:37:15.060Z,54.01
2023-04-21T09:40:03.634Z,53.88
2023-04-21T09:42:32.413Z,53.96
2023-04-21T09:47:33.816Z,54.03
2023-04-21T09:50:01.796Z,54.02
2023-04-21T09:52:30.439Z,53.87
2023-04-21T09:55:01.703Z,53.86
2023-04-21T09:57:29.400Z,54.08
2023-04-21T09:59:58.138Z,53.85
2023-04-21T10:02:26.252Z,53.89
2023-04-21T10:04:54.428Z,53.94
2023-04-21T10:07:22.423Z,53.95
2023-04-21T10:09:55.758Z,54.06
2023-04-21T10:12:25.286Z,53.86
2023-04-21T10:14:53.520Z,53.90
2023-04-21T10:17:23.297Z,53.81
2023-04-21T10:19:51.312Z,54.01
2023-04-21T10:22:27.618Z,53.82
2023-04-21T10:24:56.131Z,53.96
2023-04-21T10:27:41.528Z,53.89
2023-04-21T10:30:23.902Z,53.98
2023-04-21T10:32:53.807Z,53.84
2023-04-21T10:35:23.202Z,54.00
2023-04-21T10:37:51.501Z,54.04
2023-04-21T10:40:44.391Z,53.89
2023-04-21T10:43:27.338Z,54.12
2023-04-21T10:45:57.640Z,53.82
2023-04-21T10:48:25.302Z,54.02
2023-04-21T10:50:52.980Z,53.97
2023-04-21T10:53:20.747Z,53.85
2023-04-21T10:55:49.722Z,54.00
2023-04-21T10:58:17.500Z,53.80
2023-04-21T11:00:45.533Z,53.88
2023-04-21T11:03:14.715Z,53.86
2023-04-21T11:05:42.489Z,53.94
2023-04-21T11:08:14.545Z,53.99
2023-04-21T11:10:59.925Z,54.00
2023-04-21T11:13:29.119Z,53.86
2023-04-21T11:15:57.367Z,53.92
2023-04-21T11:18:34.328Z,53.90
2023-04-21T11:21:07.856Z,54.03
2023-04-21T11:23:35.776Z,53.92
2023-04-21T11:26:03.498Z,53.94
2023-04-21T11:28:31.168Z,53.85
2023-04-21T11:30:58.849Z,53.84
2023-04-21T11:33:29.316Z,53.84
2023-04-21T11:35:59.893Z,53.83
2023-04-21T11:38:27.602Z,54.02
2023-04-21T11:40:55.310Z,53.91
2023-04-21T11:43:23.048Z,54.09
2023-04-21T11:45:51.516Z,54.02
2023-04-21T11:48:19.550Z,54.00
2023-04-21T11:50:50.552Z,53.92
2023-04-21T11:53:20.077Z,54.13
2023-04-21T11:55:47.802Z,54.15
2023-04-21T11:58:17.692Z,54.22
2023-04-21T12:00:45.614Z,54.15
2023-04-21T12:03:14.074Z,54.03
2023-04-21T12:05:42.053Z,54.17
2023-04-21T12:08:14.792Z,54.20
2023-04-21T12:10:46.981Z,54.23
2023-04-21T12:13:17.116Z,54.04
2023-04-21T12:15:46.257Z,54.01
2023-04-21T12:18:14.153Z,54.07
2023-04-21T12:20:44.382Z,54.00
2023-04-21T12:23:12.156Z,54.08
2023-04-21T12:25:39.843Z,54.00
2023-04-21T12:28:09.128Z,54.10
2023-04-21T12:30:39.332Z,53.90
2023-04-21T12:33:09.149Z,54.02
2023-04-21T12:35:36.940Z,53.90
2023-04-21T12:38:04.897Z,53.82
2023-04-21T12:40:32.601Z,53.93
2023-04-21T12:43:00.623Z,53.83
2023-04-21T12:45:29.825Z,54.11
2023-04-21T12:47:58.450Z,53.97
2023-04-21T12:50:26.102Z,54.11
2023-04-21T12:52:55.246Z,54.05
2023-04-21T12:55:22.987Z,53.83
2023-04-21T12:57:50.733Z,53.75
2023-04-21T13:00:18.546Z,54.08
2023-04-21T13:02:47.934Z,54.10
2023-04-21T13:05:15.729Z,54.05
2023-04-21T13:07:43.737Z,54.04
2023-04-21T13:10:11.901Z,53.88
2023-04-21T13:12:39.785Z,53.80
2023-04-21T13:15:08.325Z,53.79
2023-04-21T13:17:36.066Z,53.65
2023-04-21T13:20:07.745Z,53.63
2023-04-21T13:22:36.312Z,53.77
2023-04-21T13:25:04.517Z,53.57
2023-04-21T13:27:33.423Z,53.64
2023-04-21T13:30:01.324Z,53.73
2023-04-21T13:32:29.116Z,53.78
2023-04-21T13:34:58.866Z,53.74
2023-04-21T13:37:28.004Z,53.63
2023-04-21T13:39:55.762Z,53.93
2023-04-21T13:42:23.680Z,53.76
2023-04-21T13:44:51.733Z,53.66
2023-04-21T13:47:19.694Z,53.80
2023-04-21T13:49:47.888Z,53.83
2023-04-21T13:52:15.488Z,53.84
2023-04-21T13:54:44.677Z,53.98
2023-04-21T13:57:12.351Z,53.60
2023-04-21T13:59:41.659Z,53.70
2023-04-21T14:02:09.526Z,53.83
2023-04-21T14:04:37.756Z,53.78
2023-04-21T14:07:05.873Z,53.65
2023-04-21T14:09:33.821Z,53.53
2023-04-21T14:12:03.910Z,53.56
2023-04-21T14:14:38.962Z,53.54
2023-04-21T14:17:07.166Z,53.55
2023-04-21T14:19:35.257Z,53.38
2023-04-21T14:22:03.187Z,53.42
2023-04-21T14:24:32.372Z,53.47
2023-04-21T14:27:00.249Z,53.30
2023-04-21T14:29:29.423Z,53.20
2023-04-21T14:31:58.672Z,53.14
2023-04-21T14:34:26.580Z,53.09
2023-04-21T14:36:54.495Z,53.11
2023-04-21T14:39:22.101Z,52.91
2023-04-21T14:41:49.874Z,52.90
2023-04-21T14:44:18.897Z,52.79
2023-04-21T14:46:53.714Z,52.99
2023-04-21T14:49:29.139Z,52.82
2023-04-21T14:51:56.887Z,52.81
2023-04-21T14:54:24.586Z,52.67
2023-04-21T14:56:57.971Z,52.55
2023-04-21T14:59:31.396Z,52.44
2023-04-21T15:02:00.611Z,52.40
2023-04-21T15:04:28.612Z,52.38
2023-04-21T15:06:56.387Z,52.34
2023-04-21T15:09:25.183Z,52.11
2023-04-21T15:11:54.633Z,52.08
2023-04-21T15:14:22.396Z,52.27
2023-04-21T15:16:50.263Z,52.03
2023-04-21T15:19:19.435Z,51.82
2023-04-21T15:21:47.098Z,51.90
2023-04-21T15:24:14.870Z,51.85
2023-04-21T15:26:42.581Z,51.94
2023-04-21T15:29:10.432Z,51.84
2023-04-21T15:31:38.397Z,51.72
2023-04-21T15:34:06.196Z,51.47
2023-04-21T15:36:35.705Z,51.60
2023-04-21T15:39:03.978Z,51.86
2023-04-21T15:41:31.897Z,51.31
2023-04-21T15:43:59.867Z,51.50
2023-04-21T15:46:27.706Z,51.11
2023-04-21T15:48:55.440Z,51.56
2023-04-21T15:51:23.075Z,51.19
2023-04-21T15:53:52.339Z,51.04
2023-04-21T15:56:20.656Z,51.15
2023-04-21T15:58:48.317Z,51.20
2023-04-21T16:01:16.183Z,51.23
2023-04-21T16:03:44.211Z,50.94
2023-04-21T16:06:12.215Z,51.15
2023-04-21T16:08:40.225Z,51.09
2023-04-21T16:11:09.343Z,50.83
2023-04-21T16:13:37.075Z,50.88
2023-04-21T16:16:04.839Z,50.72
2023-04-21T16:18:32.650Z,50.78
2023-04-21T16:21:00.419Z,50.88
2023-04-21T16:23:28.214Z,51.08
2023-04-21T16:25:55.932Z,51.03
2023-04-21T16:28:25.010Z,50.86
2023-04-21T16:30:52.680Z,50.97
2023-04-21T16:33:20.773Z,51.02
2023-04-21T16:35:48.702Z,51.07
2023-04-21T16:38:16.423Z,50.97
2023-04-21T16:40:44.119Z,51.03
2023-04-21T16:43:11.864Z,51.28
2023-04-21T16:45:41.225Z,51.08
2023-04-21T16:48:09.184Z,51.12
2023-04-21T16:50:37.023Z,50.98
2023-04-21T16:53:04.895Z,51.08
2023-04-21T16:55:32.648Z,51.25
2023-04-21T16:58:00.363Z,51.15
2023-04-21T17:00:30.073Z,51.09
2023-04-21T17:02:59.327Z,51.28
2023-04-21T17:05:27.027Z,51.22
2023-04-21T17:07:54.726Z,51.11
2023-04-21T17:10:22.689Z,51.12
2023-04-21T17:12:50.423Z,51.23
2023-04-21T17:15:18.173Z,51.14
2023-04-21T17:17:47.105Z,51.25
2023-04-21T17:20:16.249Z,51.26
2023-04-21T17:22:44.057Z,51.29
2023-04-21T17:25:11.996Z,51.33
2023-04-21T17:27:40.764Z,51.22
2023-04-21T17:30:09.224Z,51.26
2023-04-21T17:32:37.010Z,51.04
2023-04-21T17:35:05.822Z,51.13
2023-04-21T17:37:34.869Z,51.18
2023-04-21T17:40:03.774Z,51.19
2023-04-21T17:42:31.560Z,51.13
2023-04-21T17:44:59.385Z,51.19
2023-04-21T17:47:27.133Z,50.88
2023-04-21T17:49:54.877Z,50.96
2023-04-21T17:52:22.689Z,50.75
2023-04-21T17:54:51.769Z,50.84
2023-04-21T17:57:19.676Z,50.73
2023-04-21T17:59:47.378Z,50.69
2023-04-21T18:02:15.304Z,50.54
2023-04-21T18:04:44.425Z,50.56
2023-04-21T18:07:12.554Z,50.57
2023-04-21T18:09:40.466Z,50.44
2023-04-21T18:12:09.518Z,50.30
2023-04-21T18:14:37.761Z,50.45
2023-04-21T18:17:06.041Z,50.45
2023-04-21T18:19:33.638Z,50.36
2023-04-21T18:22:01.324Z,50.59
2023-04-21T18:24:29.475Z,50.53
2023-04-21T18:26:57.285Z,50.30
2023-04-21T18:29:26.296Z,50.27
2023-04-21T18:31:54.071Z,50.28
2023-04-21T18:34:21.748Z,50.32
2023-04-21T18:36:49.739Z,50.26
2023-04-21T18:39:17.643Z,50.09
2023-04-21T18:41:48.335Z,50.17
2023-04-21T18:44:16.237Z,50.12
2023-04-21T18:46:45.352Z,50.29
2023-04-21T18:49:12.991Z,49.98
2023-04-21T18:51:40.733Z,50.06
2023-04-21T18:54:08.385Z,50.30
2023-04-21T18:56:36.066Z,49.95
2023-04-21T18:59:03.796Z,49.78
2023-04-21T19:01:31.537Z,49.88
2023-04-21T19:04:01.059Z,49.64
2023-04-21T19:06:29.294Z,49.88
2023-04-21T19:08:57.704Z,50.03
2023-04-21T19:11:25.459Z,49.56
2023-04-21T19:13:53.099Z,49.97
2023-04-21T19:16:21.100Z,50.12
2023-04-21T19:18:48.746Z,49.70
2023-04-21T19:21:17.846Z,49.63
2023-04-21T19:23:46.733Z,49.94
2023-04-21T19:26:14.356Z,49.77
2023-04-21T19:28:41.977Z,50.05
2023-04-21T19:31:09.682Z,49.86
2023-04-21T19:33:37.441Z,49.68
2023-04-21T19:36:05.493Z,49.43
2023-04-21T19:38:34.624Z,49.61
2023-04-21T19:41:02.286Z,49.79
2023-04-21T19:43:29.964Z,49.81
2023-04-21T19:45:58.631Z,49.88
2023-04-21T19:48:26.632Z,49.77
2023-04-21T19:50:54.619Z,49.83
2023-04-21T19:53:22.307Z,49.85
2023-04-21T19:55:52.759Z,49.69
2023-04-21T19:58:38.334Z,49.70
2023-04-21T20:01:07.053Z,49.89
2023-04-21T20:03:35.095Z,49.85
2023-04-21T20:06:04.836Z,49.84
2023-04-21T20:08:32.512Z,49.80
2023-04-21T20:11:01.554Z,49.75
2023-04-21T20:13:29.261Z,49.78
2023-04-21T20:15:57.424Z,49.68
2023-04-21T20:18:25.239Z,49.76
2023-04-21T20:20:53.042Z,49.47
2023-04-21T20:23:20.854Z,49.60
2023-04-21T20:25:48.526Z,49.66
2023-04-21T20:28:17.566Z,49.85
2023-04-21T20:30:45.279Z,49.60
2023-04-21T20:33:13.066Z,49.82
2023-04-21T20:35:44.107Z,49.73
2023-04-21T20:38:11.791Z,49.88
2023-04-21T20:40:39.737Z,49.89
2023-04-21T20:43:07.677Z,49.98
2023-04-21T20:45:36.815Z,49.97
2023-04-21T20:48:05.196Z,49.98
2023-04-21T20:50:32.883Z,49.95
2023-04-21T20:53:00.587Z,50.05
2023-04-21T20:55:28.296Z,50.16
2023-04-21T20:57:55.976Z,50.13
2023-04-21T21:00:23.983Z,50.09
2023-04-21T21:02:53.437Z,50.12
2023-04-21T21:05:21.140Z,50.15
2023-04-21T21:07:49.077Z,50.07
2023-04-21T21:10:18.402Z,50.23
2023-04-21T21:12:46.347Z,50.12
2023-04-21T21:15:14.025Z,50.30
2023-04-21T21:17:41.767Z,50.25
2023-04-21T21:20:11.440Z,50.44
2023-04-21T21:22:39.156Z,50.50
2023-04-21T21:25:07.006Z,50.71
2023-04-21T21:27:34.663Z,50.88
2023-04-21T21:30:02.715Z,50.84
2023-04-21T21:32:30.738Z,51.09
2023-04-21T21:34:58.433Z,51.17
2023-04-21T21:37:27.471Z,51.17
2023-04-21T21:39:55.503Z,51.21
2023-04-21T21:42:23.710Z,51.36
2023-04-21T21:44:51.604Z,51.43
2023-04-21T21:47:19.397Z,51.40
2023-04-21T21:49:47.066Z,51.56
2023-04-21T21:52:15.213Z,51.44
2023-04-21T21:54:44.288Z,51.47
2023-04-21T21:57:11.943Z,51.60
2023-04-21T21:59:39.795Z,51.68
2023-04-21T22:02:07.807Z,51.60
2023-04-21T22:04:35.905Z,51.62
2023-04-21T22:07:04.049Z,51.76
2023-04-21T22:09:31.796Z,51.89
2023-04-21T22:12:00.928Z,51.86
2023-04-21T22:14:28.700Z,51.95
2023-04-21T22:16:57.306Z,51.91
2023-04-21T22:19:25.461Z,52.02
2023-04-21T22:21:53.159Z,52.06
2023-04-21T22:24:20.789Z,51.95
2023-04-21T22:26:48.567Z,52.09
2023-04-21T22:29:17.808Z,51.98
2023-04-21T22:31:45.669Z,52.02
2023-04-21T22:34:15.105Z,52.07
2023-04-21T22:36:42.781Z,52.12
2023-04-21T22:39:10.645Z,52.11
2023-04-21T22:41:38.399Z,52.16
2023-04-21T22:44:06.068Z,52.32
2023-04-21T22:46:35.265Z,52.36
2023-04-21T22:49:03.914Z,52.36
2023-04-21T22:51:32.289Z,52.37
2023-04-21T22:54:00.424Z,52.39
2023-04-21T22:56:28.295Z,52.37
2023-04-21T22:58:56.054Z,52.52
2023-04-21T23:01:23.988Z,52.51
2023-04-21T23:03:53.240Z,52.54
2023-04-21T23:06:21.144Z,52.56
2023-04-21T23:08:48.853Z,52.56
2023-04-21T23:11:16.798Z,52.67
2023-04-21T23:13:44.488Z,52.56
2023-04-21T23:16:12.410Z,52.60
2023-04-21T23:18:40.546Z,52.74
2023-04-21T23:21:09.948Z,52.69
2023-04-21T23:23:37.574Z,52.85
2023-04-21T23:26:05.587Z,52.86
2023-04-21T23:28:33.745Z,52.81
2023-04-21T23:39:50.334Z,52.99
2023-04-21T23:42:17.842Z,52.92
2023-04-21T23:44:45.383Z,53.00
2023-04-21T23:47:12.961Z,52.99
2023-04-21T23:49:40.634Z,53.09
2023-04-21T23:52:08.385Z,52.97
2023-04-21T23:54:35.936Z,53.12
2023-04-21T23:57:04.850Z,52.98
2023-04-21T23:59:32.960Z,53.07
